Time;durP1;ratioP1;P1;durP2;ratioP2;P2;SDS_P1;SDS_P2;PMS_P1;PMS_P2;Temp;Humidity;BMP_temperature;BMP_pressure;BME280_temperature;BME280_humidity;BME280_pressure;Samples;Min_cycle;Max_cycle;Signal;HPM_P1;HPM_P2
2022/10/04 00:00:09;;;;;;;15.10;11.45;;;16.80;67.10;;;;;;4994074;28;20062;-70
2022/10/04 00:02:36;;;;;;;13.23;11.05;;;16.80;67.10;;;;;;4995269;28;20060;-69
2022/10/04 00:05:06;;;;;;;16.08;11.38;;;16.80;67.10;;;;;;4994350;28;20054;-71
2022/10/04 00:07:35;;;;;;;15.02;10.77;;;16.80;67.10;;;;;;5012967;28;20061;-71
2022/10/04 00:10:03;;;;;;;14.48;11.20;;;16.80;67.10;;;;;;5014783;28;20076;-70
2022/10/04 00:12:32;;;;;;;14.32;10.88;;;16.80;67.10;;;;;;5014791;28;20056;-69
2022/10/04 00:14:59;;;;;;;14.23;10.43;;;16.80;69.20;;;;;;5013805;28;20056;-69
2022/10/04 00:17:30;;;;;;;13.30;10.27;;;16.80;67.10;;;;;;4995530;28;20492;-69
2022/10/04 00:19:57;;;;;;;12.85;10.32;;;16.80;67.10;;;;;;4995225;28;20565;-69
2022/10/04 00:22:25;;;;;;;14.27;9.75;;;16.80;67.10;;;;;;4994995;28;20046;-69
2022/10/04 00:25:18;;;;;;;14.02;10.27;;;16.80;67.10;;;;;;4994081;28;20471;-69
2022/10/04 00:28:28;;;;;;;14.20;10.00;;;16.80;67.00;;;;;;4974371;28;20058;-71
2022/10/04 00:31:07;;;;;;;12.65;9.88;;;16.70;67.00;;;;;;4973690;28;20094;-69
2022/10/04 00:33:34;;;;;;;14.48;10.32;;;16.70;67.10;;;;;;4974449;28;20069;-69
2022/10/04 00:36:01;;;;;;;12.77;9.45;;;16.80;69.40;;;;;;4986442;28;20060;-70
2022/10/04 00:38:28;;;;;;;13.77;9.85;;;16.70;67.10;;;;;;5013310;28;20411;-70
2022/10/04 00:40:59;;;;;;;12.88;9.90;;;16.70;67.20;;;;;;5014281;28;20162;-71
2022/10/04 00:43:28;;;;;;;12.50;9.63;;;16.70;67.10;;;;;;5014279;28;20054;-71
2022/10/04 00:45:55;;;;;;;11.93;9.57;;;16.70;67.10;;;;;;5008286;28;20246;-71
2022/10/04 00:48:29;;;;;;;11.55;9.07;;;16.70;67.20;;;;;;4994647;28;20073;-71
2022/10/04 00:50:57;;;;;;;12.38;9.48;;;16.70;67.10;;;;;;4994249;28;20129;-70
2022/10/04 00:53:45;;;;;;;13.75;9.55;;;16.70;67.20;;;;;;4994329;28;20065;-70
2022/10/04 00:56:15;;;;;;;11.90;9.15;;;16.70;67.10;;;;;;5001240;28;20050;-70
2022/10/04 00:58:47;;;;;;;12.68;9.52;;;16.70;67.20;;;;;;5013974;28;20414;-72
2022/10/04 01:01:14;;;;;;;11.90;8.32;;;16.70;67.20;;;;;;5013619;28;20052;-72
2022/10/04 01:03:42;;;;;;;11.07;8.77;;;16.70;67.20;;;;;;5013796;28;20050;-69
2022/10/04 01:06:09;;;;;;;10.80;8.75;;;16.60;67.10;;;;;;5006570;28;20050;-69
2022/10/04 01:08:38;;;;;;;12.27;8.68;;;16.70;67.20;;;;;;4994313;28;20157;-69
2022/10/04 01:11:06;;;;;;;11.50;8.48;;;16.70;67.20;;;;;;4993010;28;20062;-70
2022/10/04 01:13:38;;;;;;;12.50;8.93;;;16.70;67.20;;;;;;4993051;28;20065;-69
2022/10/04 01:16:10;;;;;;;10.80;8.55;;;16.70;67.10;;;;;;4998002;28;20050;-70
2022/10/04 01:18:37;;;;;;;10.35;8.10;;;16.60;67.10;;;;;;5012395;28;20057;-70
2022/10/04 01:21:05;;;;;;;10.77;8.40;;;16.70;67.10;;;;;;5012361;28;20057;-69
2022/10/04 01:23:39;;;;;;;10.52;7.72;;;16.70;67.10;;;;;;5013613;28;20050;-69
2022/10/04 01:26:06;;;;;;;10.73;7.70;;;16.70;67.10;;;;;;5006875;28;20050;-70
2022/10/04 01:28:36;;;;;;;11.50;7.75;;;16.70;67.20;;;;;;4992475;28;20109;-70
2022/10/04 01:31:06;;;;;;;11.38;8.20;;;16.70;67.10;;;;;;4993753;28;20054;-69
2022/10/04 01:33:33;;;;;;;11.15;7.63;;;16.60;67.10;;;;;;4994004;28;20053;-69
2022/10/04 01:36:00;;;;;;;10.30;7.78;;;16.60;67.10;;;;;;4996490;28;20462;-69
2022/10/04 01:38:27;;;;;;;9.93;7.28;;;16.60;67.10;;;;;;5012052;28;20428;-70
2022/10/04 01:40:58;;;;;;;10.13;7.78;;;16.60;67.10;;;;;;5012775;28;20046;-70
2022/10/04 01:43:28;;;;;;;9.57;7.53;;;16.70;67.10;;;;;;5012434;28;20595;-69
2022/10/04 01:45:56;;;;;;;9.30;7.70;;;16.60;67.10;;;;;;5008522;28;20057;-69
2022/10/04 01:48:24;;;;;;;9.93;7.28;;;16.60;67.10;;;;;;4992514;28;20060;-70
2022/10/04 01:50:54;;;;;;;8.55;7.32;;;16.60;67.10;;;;;;4992272;28;20422;-69
2022/10/04 01:53:22;;;;;;;8.80;7.10;;;16.60;67.10;;;;;;4993194;28;20072;-69
2022/10/04 01:55:51;;;;;;;9.60;7.22;;;16.60;67.10;;;;;;4992143;28;20462;-69
2022/10/04 01:58:20;;;;;;;9.82;7.38;;;16.60;67.10;;;;;;4992303;28;20072;-69
2022/10/04 02:00:50;;;;;;;9.15;7.45;;;16.60;67.10;;;;;;4991972;28;20061;-70
2022/10/04 02:03:28;;;;;;;10.80;7.22;;;16.60;69.20;;;;;;5109349;27;20879;-68
2022/10/04 02:05:57;;;;;;;8.00;6.75;;;16.60;67.10;;;;;;5108313;28;20138;-69
2022/10/04 02:08:25;;;;;;;9.82;7.28;;;16.60;67.10;;;;;;5103049;28;20052;-70
2022/10/04 02:10:53;;;;;;;8.95;6.72;;;16.60;67.10;;;;;;5087950;28;20523;-71
2022/10/04 02:13:20;;;;;;;11.40;7.03;;;16.60;67.10;;;;;;5087623;28;20144;-68
2022/10/04 02:15:47;;;;;;;8.15;6.72;;;16.60;67.10;;;;;;5087648;28;20063;-69
2022/10/04 02:18:14;;;;;;;8.00;6.50;;;16.50;67.10;;;;;;5087512;28;20056;-68
2022/10/04 02:20:42;;;;;;;7.68;6.30;;;16.60;67.20;;;;;;5087761;28;20055;-68
2022/10/04 02:23:09;;;;;;;7.90;6.72;;;16.50;67.10;;;;;;5087361;28;20044;-68
2022/10/04 02:25:36;;;;;;;7.97;6.25;;;16.60;67.10;;;;;;5088405;28;20056;-68
2022/10/04 02:28:03;;;;;;;8.15;6.47;;;16.60;67.10;;;;;;5087485;28;20056;-68
2022/10/04 02:30:35;;;;;;;9.57;6.90;;;16.50;67.10;;;;;;5088544;28;20048;-68
2022/10/04 02:33:00;;;;;;;8.93;6.55;;;16.50;67.10;;;;;;5087691;28;20127;-68
2022/10/04 02:35:28;;;;;;;9.75;6.57;;;16.50;67.10;;;;;;5087602;28;20131;-69
2022/10/04 02:38:01;;;;;;;7.95;6.28;;;16.50;67.10;;;;;;5086986;28;20063;-70
2022/10/04 02:40:30;;;;;;;8.27;6.30;;;16.50;67.10;;;;;;5087335;28;20394;-69
2022/10/04 02:42:59;;;;;;;8.15;6.55;;;16.50;67.10;;;;;;5087954;28;20513;-68
2022/10/04 02:45:29;;;;;;;7.47;6.03;;;16.50;67.10;;;;;;5086975;28;20052;-69
2022/10/04 02:47:58;;;;;;;7.90;6.40;;;16.50;67.10;;;;;;5087346;28;20422;-69
2022/10/04 02:50:30;;;;;;;7.60;5.68;;;16.50;67.10;;;;;;5087081;28;20663;-70
2022/10/04 02:53:01;;;;;;;8.98;6.22;;;16.50;67.10;;;;;;5087028;28;20409;-70
2022/10/04 02:55:29;;;;;;;9.27;6.43;;;16.50;67.10;;;;;;5088310;28;20052;-69
2022/10/04 02:57:56;;;;;;;7.28;5.78;;;16.50;67.80;;;;;;5087040;28;20404;-70
2022/10/04 03:00:24;;;;;;;8.68;5.90;;;16.50;67.10;;;;;;5086974;28;20058;-71
2022/10/04 03:03:21;;;;;;;7.65;5.70;;;16.50;67.10;;;;;;5087803;28;20443;-71
2022/10/04 03:05:54;;;;;;;7.15;5.35;;;16.50;67.00;;;;;;5088065;28;20048;-71
2022/10/04 03:08:22;;;;;;;6.95;5.75;;;16.50;67.10;;;;;;5087785;28;20048;-71
2022/10/04 03:10:49;;;;;;;7.60;5.80;;;16.50;67.10;;;;;;5086766;28;20060;-71
2022/10/04 03:13:16;;;;;;;7.10;5.40;;;16.50;67.10;;;;;;5081627;28;20056;-71
2022/10/04 03:15:43;;;;;;;8.50;5.65;;;16.50;67.10;;;;;;5073552;28;20056;-71
2022/10/04 03:18:09;;;;;;;7.88;5.70;;;16.50;67.10;;;;;;5073980;28;20413;-71
2022/10/04 03:20:37;;;;;;;7.70;5.68;;;16.50;67.10;;;;;;5074156;28;20052;-70
2022/10/04 03:23:04;;;;;;;7.57;5.50;;;16.50;67.10;;;;;;5074108;28;21668;-71
2022/10/04 03:25:37;;;;;;;8.55;5.45;;;16.50;67.10;;;;;;5074559;28;20058;-71
2022/10/04 03:28:04;;;;;;;7.32;5.70;;;16.50;67.10;;;;;;5072866;28;20058;-69
2022/10/04 03:30:31;;;;;;;7.25;5.50;;;16.50;67.10;;;;;;5074251;28;20048;-71
2022/10/04 03:32:58;;;;;;;6.82;5.10;;;16.40;67.00;;;;;;5072813;28;20049;-71
2022/10/04 03:35:28;;;;;;;7.47;5.32;;;16.50;67.10;;;;;;5073627;28;20056;-71
2022/10/04 03:37:55;;;;;;;7.10;5.57;;;16.50;67.10;;;;;;5069287;28;20055;-70
2022/10/04 03:40:24;;;;;;;7.65;5.55;;;16.50;67.10;;;;;;5072229;28;20058;-71
2022/10/04 03:42:52;;;;;;;6.60;4.93;;;16.50;67.10;;;;;;5072145;28;20174;-71
2022/10/04 03:45:19;;;;;;;6.88;5.15;;;16.50;67.10;;;;;;5073514;28;20406;-71
2022/10/04 03:47:48;;;;;;;7.63;4.95;;;16.50;67.10;;;;;;5073169;28;20041;-71
2022/10/04 03:50:15;;;;;;;7.07;4.65;;;16.50;67.10;;;;;;5071816;28;20072;-71
2022/10/04 03:52:44;;;;;;;6.28;5.03;;;16.40;67.10;;;;;;5071802;28;20045;-71
2022/10/04 03:55:11;;;;;;;6.68;5.00;;;16.40;67.10;;;;;;5072273;28;20074;-71
2022/10/04 03:57:37;;;;;;;7.00;5.18;;;16.40;67.10;;;;;;5070744;28;20049;-71
2022/10/04 04:00:07;;;;;;;6.43;4.65;;;16.40;67.10;;;;;;5072786;28;20408;-71
2022/10/04 04:02:35;;;;;;;5.70;4.85;;;16.40;67.00;;;;;;5071378;28;20091;-70
2022/10/04 04:05:06;;;;;;;6.13;4.90;;;16.40;67.10;;;;;;5071666;28;20436;-71
2022/10/04 04:07:36;;;;;;;6.30;4.40;;;16.40;67.00;;;;;;5071987;28;20052;-71
2022/10/04 04:10:05;;;;;;;6.22;4.97;;;16.40;67.10;;;;;;5072800;28;20050;-71
2022/10/04 04:12:35;;;;;;;6.15;4.80;;;16.40;67.10;;;;;;5073200;28;20074;-69
2022/10/04 04:15:04;;;;;;;5.32;4.55;;;16.40;67.10;;;;;;5071908;28;20052;-69
2022/10/04 04:17:40;;;;;;;6.13;4.70;;;16.40;67.10;;;;;;5072213;28;20056;-69
2022/10/04 04:20:17;;;;;;;6.47;4.82;;;16.40;67.00;;;;;;5071483;28;20064;-68
2022/10/04 04:22:45;;;;;;;6.10;4.45;;;16.40;67.00;;;;;;5071538;28;20409;-69
2022/10/04 04:25:14;;;;;;;6.32;4.60;;;16.40;67.10;;;;;;5070876;28;20064;-69
2022/10/04 04:27:41;;;;;;;5.40;4.00;;;16.40;67.00;;;;;;5072934;28;20049;-69
2022/10/04 04:30:08;;;;;;;5.28;3.97;;;16.40;67.10;;;;;;5070903;28;20053;-72
2022/10/04 04:32:38;;;;;;;5.35;4.45;;;16.40;67.00;;;;;;5071260;28;20059;-69
2022/10/04 04:35:20;;;;;;;5.13;4.43;;;16.40;67.00;;;;;;5071082;28;20091;-70
2022/10/04 04:38:04;;;;;;;6.70;4.25;;;16.40;67.00;;;;;;5071544;28;20056;-69
2022/10/04 04:40:31;;;;;;;5.57;3.97;;;16.40;67.00;;;;;;5071624;28;20060;-70
2022/10/04 04:42:58;;;;;;;5.53;4.20;;;16.30;67.00;;;;;;5072328;28;20366;-70
2022/10/04 04:45:28;;;;;;;5.28;4.22;;;16.40;67.00;;;;;;5071492;28;20424;-70
2022/10/04 04:47:56;;;;;;;5.53;4.35;;;16.40;67.00;;;;;;5071318;28;20055;-71
2022/10/04 04:50:25;;;;;;;5.55;4.30;;;16.30;67.00;;;;;;5072170;28;20456;-71
2022/10/04 04:52:53;;;;;;;5.40;4.20;;;16.30;67.00;;;;;;5070557;28;20048;-70
2022/10/04 04:55:21;;;;;;;4.45;4.00;;;16.40;67.00;;;;;;5070586;28;20083;-69
2022/10/04 04:57:48;;;;;;;6.00;4.18;;;16.30;66.90;;;;;;5072218;28;20044;-69
2022/10/04 05:00:17;;;;;;;5.93;4.25;;;16.30;67.00;;;;;;5070861;28;20056;-71
2022/10/04 05:02:50;;;;;;;4.80;4.13;;;16.30;66.90;;;;;;5071780;28;20055;-69
2022/10/04 05:05:24;;;;;;;5.85;3.97;;;16.30;66.90;;;;;;5071027;28;20062;-70
2022/10/04 05:07:51;;;;;;;5.03;3.78;;;16.40;67.00;;;;;;5070275;28;20391;-69
2022/10/04 05:10:31;;;;;;;6.00;4.10;;;16.30;67.00;;;;;;5069673;28;20076;-70
2022/10/04 05:12:59;;;;;;;7.78;4.35;;;16.30;66.90;;;;;;5070541;28;20082;-70
2022/10/04 05:15:27;;;;;;;5.95;4.00;;;16.30;67.00;;;;;;5071002;28;20059;-70
2022/10/04 05:17:54;;;;;;;6.53;3.70;;;16.30;67.00;;;;;;5070362;28;20079;-70
2022/10/04 05:20:20;;;;;;;5.13;4.20;;;16.30;67.00;;;;;;5071929;28;20040;-69
2022/10/04 05:22:49;;;;;;;4.88;3.88;;;16.30;67.00;;;;;;5070500;28;20058;-70
2022/10/04 05:25:21;;;;;;;5.80;3.80;;;16.30;67.00;;;;;;5071037;28;20052;-70
2022/10/04 05:27:48;;;;;;;5.43;4.22;;;16.40;67.50;;;;;;5070879;28;20058;-70
2022/10/04 05:30:24;;;;;;;5.15;3.70;;;16.30;67.00;;;;;;5070634;28;20056;-69
2022/10/04 05:32:53;;;;;;;4.82;3.72;;;16.30;66.90;;;;;;5070666;28;20060;-70
2022/10/04 05:35:21;;;;;;;4.57;3.67;;;16.30;67.00;;;;;;5070366;28;20049;-71
2022/10/04 05:37:56;;;;;;;6.32;3.78;;;16.30;67.40;;;;;;5071568;28;20400;-70
2022/10/04 05:40:31;;;;;;;5.80;3.70;;;16.30;67.00;;;;;;5070656;28;20409;-70
2022/10/04 05:42:58;;;;;;;;;;;16.30;67.00;;;;;;5070859;28;20053;-70
2022/10/04 05:45:26;;;;;;;5.60;3.50;;;16.20;66.90;;;;;;5070886;28;19927;-70
2022/10/04 05:47:54;;;;;;;4.10;3.50;;;16.20;67.10;;;;;;5070356;28;20477;-72
2022/10/04 05:50:22;;;;;;;5.45;3.88;;;16.20;67.00;;;;;;5070564;28;20579;-71
2022/10/04 05:52:50;;;;;;;4.55;3.67;;;16.30;67.00;;;;;;5071215;28;20422;-72
2022/10/04 05:55:24;;;;;;;5.43;3.60;;;16.30;67.00;;;;;;5071996;28;20055;-71
2022/10/04 05:58:19;;;;;;;5.43;3.95;;;16.30;67.00;;;;;;5071430;28;20505;-72
2022/10/04 06:00:54;;;;;;;4.57;3.15;;;16.30;66.90;;;;;;5071707;28;20090;-72
2022/10/04 06:03:28;;;;;;;4.95;3.60;;;16.20;66.90;;;;;;5071412;28;20048;-72
2022/10/04 06:05:56;;;;;;;4.05;3.30;;;16.30;67.00;;;;;;5069363;28;20413;-70
2022/10/04 06:08:28;;;;;;;4.07;3.00;;;16.20;66.90;;;;;;5071359;28;20235;-72
2022/10/04 06:11:10;;;;;;;5.30;3.50;;;16.20;66.90;;;;;;5071379;28;20640;-72
2022/10/04 06:13:51;;;;;;;4.53;3.38;;;16.30;66.90;;;;;;5071288;28;20418;-71
2022/10/04 06:16:20;;;;;;;3.97;3.05;;;16.30;66.90;;;;;;5071402;28;20059;-71
2022/10/04 06:19:11;;;;;;;5.68;3.40;;;16.20;67.40;;;;;;5071203;28;20049;-71
2022/10/04 06:21:38;;;;;;;6.10;3.45;;;16.30;66.90;;;;;;5070853;28;20394;-71
2022/10/04 06:24:09;;;;;;;4.30;3.30;;;16.20;66.90;;;;;;5071386;28;20432;-71
2022/10/04 06:26:40;;;;;;;5.25;3.33;;;16.20;66.90;;;;;;5071632;28;20048;-71
2022/10/04 06:29:09;;;;;;;4.32;3.40;;;16.20;66.80;;;;;;5053008;28;20056;-71
2022/10/04 06:32:05;;;;;;;4.60;3.20;;;16.20;66.90;;;;;;5070026;28;20062;-72
2022/10/04 06:34:40;;;;;;;;;;;16.20;66.80;;;;;;5050758;28;20462;-71
2022/10/04 06:37:58;;;;;;;4.55;3.20;;;16.20;66.80;;;;;;5066996;28;19924;-70
2022/10/04 06:40:43;;;;;;;4.15;3.22;;;16.20;66.90;;;;;;4992656;28;20493;-72
2022/10/04 06:43:30;;;;;;;4.80;3.22;;;16.20;67.00;;;;;;5008733;28;20406;-70
2022/10/04 06:46:09;;;;;;;4.78;3.25;;;16.20;66.90;;;;;;5031611;28;20233;-71
2022/10/04 06:49:00;;;;;;;5.53;3.25;;;16.20;66.90;;;;;;5051120;28;20056;-72
2022/10/04 06:51:39;;;;;;;4.05;3.30;;;16.20;66.90;;;;;;5053517;28;20057;-72
2022/10/04 06:54:11;;;;;;;4.05;3.00;;;16.20;66.90;;;;;;5053785;28;20088;-70
2022/10/04 06:56:45;;;;;;;5.72;3.10;;;16.20;66.90;;;;;;5054954;28;20445;-70
2022/10/04 06:59:26;;;;;;;4.13;3.20;;;16.20;66.90;;;;;;5053518;28;20495;-70
2022/10/04 07:01:56;;;;;;;3.90;3.10;;;16.20;66.80;;;;;;5056425;28;20435;-71
2022/10/04 07:04:31;;;;;;;4.07;2.97;;;16.20;66.80;;;;;;5073314;28;20048;-71
2022/10/04 07:09:48;;;;;;;4.50;3.28;;;16.20;66.80;;;;;;5072580;28;20100;-71
2022/10/04 07:12:16;;;;;;;5.38;3.17;;;16.20;66.80;;;;;;5074640;28;20055;-71
2022/10/04 07:14:46;;;;;;;4.10;3.15;;;16.20;66.80;;;;;;5074195;28;20055;-71
2022/10/04 07:17:14;;;;;;;4.95;3.30;;;16.20;66.80;;;;;;5073234;28;20428;-71
2022/10/04 07:19:42;;;;;;;3.95;3.00;;;16.20;66.80;;;;;;5073996;28;20045;-71
2022/10/04 07:22:14;;;;;;;4.93;3.33;;;16.20;66.80;;;;;;5073842;28;20056;-70
2022/10/04 07:24:57;;;;;;;4.50;3.30;;;16.20;66.80;;;;;;5074056;28;20082;-71
2022/10/04 07:27:26;;;;;;;3.63;2.90;;;16.20;66.70;;;;;;5074401;28;20504;-70
2022/10/04 07:29:54;;;;;;;4.97;3.15;;;16.20;66.80;;;;;;5074017;28;20045;-70
2022/10/04 07:32:22;;;;;;;4.65;2.80;;;16.20;66.80;;;;;;5073040;28;20048;-71
2022/10/04 07:34:51;;;;;;;3.15;2.65;;;16.20;66.80;;;;;;5073167;28;20085;-72
2022/10/04 07:37:18;;;;;;;4.15;3.00;;;16.30;66.90;;;;;;5055868;28;20500;-73
2022/10/04 07:39:49;;;;;;;3.70;3.00;;;16.20;66.80;;;;;;5072255;28;20049;-70
2022/10/04 07:42:20;;;;;;;4.60;2.97;;;16.20;66.80;;;;;;5072174;28;20056;-72
2022/10/04 07:44:49;;;;;;;4.95;2.95;;;16.30;66.80;;;;;;5070115;28;20051;-70
2022/10/04 07:47:20;;;;;;;4.10;2.55;;;16.30;66.80;;;;;;5072384;28;20067;-72
2022/10/04 07:49:48;;;;;;;3.33;2.60;;;16.30;66.70;;;;;;5072550;28;20054;-73
2022/10/04 07:52:37;;;;;;;3.85;2.60;;;16.40;66.70;;;;;;5072660;28;20101;-73
2022/10/04 07:55:09;;;;;;;4.53;2.70;;;16.40;66.60;;;;;;5070742;28;20055;-72
2022/10/04 07:57:39;;;;;;;6.55;2.70;;;16.50;66.60;;;;;;5073036;28;20135;-70
2022/10/04 08:00:11;;;;;;;3.40;2.65;;;16.50;66.60;;;;;;5072579;28;20056;-70
2022/10/04 08:02:42;;;;;;;3.47;2.78;;;16.50;66.60;;;;;;5071944;28;20063;-71
2022/10/04 08:05:17;;;;;;;3.55;2.45;;;16.60;66.60;;;;;;5073047;28;20054;-70
2022/10/04 08:07:53;;;;;;;3.00;2.35;;;16.60;66.50;;;;;;5071539;28;20048;-70
2022/10/04 08:10:24;;;;;;;3.30;2.33;;;16.70;66.50;;;;;;5073119;28;20386;-70
2022/10/04 08:12:53;;;;;;;4.40;2.47;;;16.70;66.50;;;;;;5072350;28;20052;-69
2022/10/04 08:15:36;;;;;;;3.28;2.45;;;16.70;66.50;;;;;;5071464;28;20049;-70
2022/10/04 08:18:16;;;;;;;3.90;2.67;;;16.70;66.50;;;;;;5073186;28;20490;-70
2022/10/04 08:20:46;;;;;;;3.05;2.25;;;16.80;66.50;;;;;;5072816;28;20128;-70
2022/10/04 08:23:31;;;;;;;4.32;2.45;;;16.80;66.40;;;;;;5071888;28;20052;-70
2022/10/04 08:26:03;;;;;;;3.58;2.30;;;16.90;66.50;;;;;;5072535;28;20139;-70
2022/10/04 08:31:24;;;;;;;3.33;2.20;;;16.90;66.40;;;;;;5051149;28;20060;-72
2022/10/04 08:34:02;;;;;;;3.20;2.30;;;16.90;66.40;;;;;;5069178;28;20044;-71
2022/10/04 08:36:46;;;;;;;4.78;2.35;;;17.00;66.30;;;;;;5069775;28;20048;-70
2022/10/04 08:39:22;;;;;;;5.03;2.60;;;17.00;66.20;;;;;;5073161;28;20086;-70
2022/10/04 08:42:15;;;;;;;;;;;17.00;66.30;;;;;;5072578;28;20051;-72
2022/10/04 08:44:55;;;;;;;2.90;2.10;;;17.00;66.60;;;;;;5024984;28;19920;-71
2022/10/04 08:47:49;;;;;;;3.42;2.13;;;17.00;66.50;;;;;;5071868;28;20056;-70
2022/10/04 08:50:46;;;;;;;2.78;1.95;;;17.00;66.60;;;;;;5062314;28;20088;-70
2022/10/04 08:53:29;;;;;;;2.95;2.00;;;17.10;66.50;;;;;;5072817;28;20403;-72
2022/10/04 08:56:01;;;;;;;2.42;1.95;;;17.10;66.60;;;;;;5072452;28;20429;-70
2022/10/04 08:58:52;;;;;;;2.83;1.88;;;17.10;66.60;;;;;;5071620;28;20045;-71
2022/10/04 09:01:39;;;;;;;3.67;2.10;;;17.10;66.60;;;;;;5069435;28;20053;-71
2022/10/04 09:04:31;;;;;;;3.85;2.08;;;17.10;66.60;;;;;;5070032;28;20619;-69
2022/10/04 09:07:03;;;;;;;3.13;2.00;;;17.20;66.70;;;;;;5051231;28;20063;-70
2022/10/04 09:09:59;;;;;;;2.33;1.80;;;17.10;66.60;;;;;;5066322;28;20060;-73
2022/10/04 09:12:45;;;;;;;3.83;2.20;;;17.20;66.70;;;;;;5060828;28;20421;-70
2022/10/04 09:15:26;;;;;;;3.42;2.17;;;17.10;66.70;;;;;;5071755;28;20555;-71
2022/10/04 09:18:01;;;;;;;2.85;1.90;;;17.20;66.70;;;;;;5069846;28;20425;-72
2022/10/04 09:20:34;;;;;;;2.65;2.10;;;17.10;66.70;;;;;;5071980;28;20143;-70
2022/10/04 09:23:19;;;;;;;2.10;1.73;;;17.10;66.70;;;;;;5071004;28;20404;-70
2022/10/04 09:25:55;;;;;;;4.55;2.17;;;17.10;66.70;;;;;;5070856;28;20110;-71
2022/10/04 09:28:52;;;;;;;3.88;2.10;;;17.10;66.70;;;;;;5070483;28;20048;-70
2022/10/04 09:31:56;;;;;;;3.47;2.00;;;17.10;66.70;;;;;;5070730;28;20056;-73
2022/10/04 09:34:32;;;;;;;3.30;1.90;;;17.10;66.60;;;;;;5070999;28;20094;-71
2022/10/04 09:37:17;;;;;;;3.03;1.92;;;17.10;66.70;;;;;;5070642;28;20056;-71
2022/10/04 09:40:02;;;;;;;2.33;1.80;;;17.00;66.50;;;;;;5069317;28;20057;-71
2022/10/04 09:42:44;;;;;;;2.95;1.95;;;17.00;66.50;;;;;;5072113;28;20045;-72
2022/10/04 09:45:37;;;;;;;4.38;2.20;;;17.00;66.50;;;;;;5071790;28;20529;-73
2022/10/04 09:48:26;;;;;;;3.53;2.00;;;17.00;66.40;;;;;;5070307;28;20128;-73
2022/10/04 09:51:22;;;;;;;2.35;1.60;;;17.00;66.40;;;;;;5056456;28;20501;-70
2022/10/04 09:53:59;;;;;;;;;;;17.00;66.40;;;;;;5057093;28;20051;-70
2022/10/04 09:56:52;;;;;;;2.85;1.80;;;16.90;66.40;;;;;;5051568;28;19953;-73
2022/10/04 09:59:52;;;;;;;3.08;2.22;;;16.90;66.50;;;;;;5050663;28;20143;-71
2022/10/04 10:02:45;;;;;;;2.10;1.70;;;17.00;66.50;;;;;;5049868;28;20088;-71
2022/10/04 10:05:23;;;;;;;2.72;1.80;;;16.90;66.40;;;;;;5017924;28;20040;-71
2022/10/04 10:07:52;;;;;;;2.72;1.60;;;16.90;66.40;;;;;;5068745;28;20066;-70
2022/10/04 10:16:06;;;;;;;2.10;1.67;;;16.90;66.40;;;;;;5063560;28;20049;-71
2022/10/04 10:18:41;;;;;;;2.78;1.80;;;16.90;66.40;;;;;;5070473;28;20067;-70
2022/10/04 10:21:25;;;;;;;2.35;1.70;;;16.90;66.30;;;;;;5070278;28;20060;-72
2022/10/04 10:23:58;;;;;;;3.25;1.70;;;16.90;66.30;;;;;;5071654;28;20059;-72
2022/10/04 10:26:43;;;;;;;2.70;1.75;;;16.90;66.40;;;;;;5075438;28;20400;-73
2022/10/04 10:29:40;;;;;;;2.50;1.75;;;16.90;66.40;;;;;;5053869;28;20055;-71
2022/10/04 10:32:35;;;;;;;3.65;1.80;;;16.90;66.30;;;;;;4998532;28;20061;-72
2022/10/04 10:35:14;;;;;;;2.78;1.65;;;16.90;66.40;;;;;;5055437;28;20063;-69
2022/10/04 10:37:47;;;;;;;2.25;1.70;;;16.90;66.50;;;;;;5053921;28;20063;-70
2022/10/04 10:40:32;;;;;;;3.38;1.92;;;17.00;66.60;;;;;;5053847;28;20059;-71
2022/10/04 10:43:17;;;;;;;4.95;1.70;;;17.00;66.70;;;;;;5054263;28;20061;-70
2022/10/04 10:46:04;;;;;;;2.63;2.00;;;17.00;66.70;;;;;;5057185;28;20063;-72
2022/10/04 10:49:04;;;;;;;3.20;1.70;;;17.10;66.80;;;;;;5073773;28;20052;-71
2022/10/04 10:51:43;;;;;;;2.92;1.77;;;17.10;66.70;;;;;;5064310;28;20512;-70
2022/10/04 10:54:38;;;;;;;4.40;2.10;;;17.10;66.60;;;;;;5073957;28;20056;-70
2022/10/04 10:57:06;;;;;;;;;;;18.00;67.00;;;;;;5061679;28;20057;-70
2022/10/04 11:00:10;;;;;;;2.38;1.63;;;17.10;66.60;;;;;;5073537;28;19920;-72
2022/10/04 11:03:11;;;;;;;4.03;1.88;;;17.20;66.60;;;;;;5068248;28;20429;-71
2022/10/04 11:06:07;;;;;;;2.35;1.70;;;17.20;66.50;;;;;;5053356;28;20050;-71
2022/10/04 11:08:56;;;;;;;6.63;1.67;;;17.30;66.50;;;;;;5073842;28;20071;-70
2022/10/04 11:11:34;;;;;;;2.75;1.98;;;17.30;66.40;;;;;;5074270;28;20049;-71
2022/10/04 11:14:18;;;;;;;1.98;1.52;;;17.30;66.40;;;;;;5073395;28;20057;-70
2022/10/04 11:17:12;;;;;;;2.37;1.80;;;17.30;66.30;;;;;;5053663;28;20087;-70
2022/10/04 11:20:23;;;;;;;2.80;1.75;;;17.40;66.30;;;;;;5072288;28;20054;-72
2022/10/04 11:23:23;;;;;;;4.32;1.60;;;17.40;66.20;;;;;;5073541;28;20080;-70
2022/10/04 11:26:16;;;;;;;2.40;1.67;;;17.40;66.10;;;;;;5052972;28;20139;-70
2022/10/04 11:28:45;;;;;;;3.47;1.70;;;17.40;66.00;;;;;;5064471;28;20052;-72
2022/10/04 11:31:42;;;;;;;2.35;1.67;;;17.40;66.00;;;;;;5072540;28;20131;-74
2022/10/04 11:34:34;;;;;;;3.25;1.75;;;17.50;66.10;;;;;;5004264;28;20421;-72
2022/10/04 11:37:05;;;;;;;2.35;1.50;;;17.50;66.00;;;;;;5072792;28;20486;-71
2022/10/04 11:39:49;;;;;;;2.25;1.60;;;17.50;66.10;;;;;;5073077;28;20052;-71
2022/10/04 11:42:21;;;;;;;2.22;1.63;;;17.50;66.00;;;;;;5072785;28;20139;-72
2022/10/04 11:45:00;;;;;;;3.50;1.80;;;17.50;66.10;;;;;;5073023;28;20131;-72
2022/10/04 11:47:34;;;;;;;2.95;1.65;;;17.50;66.00;;;;;;5074381;28;20087;-71
2022/10/04 11:50:31;;;;;;;2.50;1.65;;;17.50;66.00;;;;;;5072369;28;20499;-72
2022/10/04 11:53:10;;;;;;;4.13;1.80;;;17.50;66.10;;;;;;5047926;28;20058;-71
2022/10/04 11:55:56;;;;;;;2.75;1.50;;;17.50;66.10;;;;;;5072734;28;20088;-72
2022/10/04 11:58:28;;;;;;;2.75;1.58;;;17.50;66.00;;;;;;5072292;28;20059;-73
2022/10/04 12:01:19;;;;;;;2.85;1.65;;;17.50;66.00;;;;;;5073819;28;20048;-71
2022/10/04 12:04:08;;;;;;;3.35;1.77;;;17.50;66.00;;;;;;5072301;28;20056;-71
2022/10/04 12:06:50;;;;;;;7.82;2.33;;;17.50;66.00;;;;;;5072202;28;20550;-70
2022/10/04 12:09:19;;;;;;;20.05;3.53;;;17.50;66.10;;;;;;5073459;28;20135;-69
2022/10/04 12:12:37;;;;;;;18.88;4.03;;;17.50;66.20;;;;;;5071832;28;20489;-69
2022/10/04 12:15:17;;;;;;;11.98;3.45;;;17.50;66.20;;;;;;5028712;28;20052;-69
2022/10/04 12:18:38;;;;;;;13.68;3.47;;;17.50;66.30;;;;;;5073312;28;20052;-70
2022/10/04 12:21:30;;;;;;;15.63;3.17;;;17.50;66.80;;;;;;4994984;28;20136;-70
2022/10/04 12:24:19;;;;;;;12.27;3.40;;;17.50;66.40;;;;;;5072995;28;20408;-70
2022/10/04 12:27:12;;;;;;;8.23;3.20;;;17.50;66.40;;;;;;5072844;28;20052;-70
2022/10/04 12:30:04;;;;;;;10.20;2.97;;;17.50;66.50;;;;;;5072082;28;20045;-71
2022/10/04 12:32:33;;;;;;;8.95;2.80;;;17.50;66.40;;;;;;5072091;28;20083;-71
2022/10/04 12:35:07;;;;;;;8.60;2.90;;;17.50;66.50;;;;;;5071934;28;20057;-69
2022/10/04 12:37:37;;;;;;;8.95;3.28;;;17.50;66.50;;;;;;5071688;28;20057;-69
2022/10/04 12:40:18;;;;;;;6.78;2.65;;;17.50;66.50;;;;;;5071595;28;20417;-70
2022/10/04 12:42:47;;;;;;;8.43;2.38;;;17.50;66.40;;;;;;5071818;28;20062;-69
2022/10/04 12:45:24;;;;;;;7.95;2.78;;;17.50;66.50;;;;;;5072653;28;20052;-72
2022/10/04 12:48:07;;;;;;;10.48;3.00;;;17.50;66.40;;;;;;5071643;28;20497;-70
2022/10/04 12:50:49;;;;;;;7.20;2.60;;;17.50;66.40;;;;;;5072452;28;20408;-70
2022/10/04 12:53:22;;;;;;;10.43;2.97;;;17.50;66.30;;;;;;5072631;28;20055;-70
2022/10/04 12:56:05;;;;;;;8.60;2.58;;;17.50;66.40;;;;;;5071705;28;20040;-70
2022/10/04 12:58:39;;;;;;;7.10;2.90;;;17.50;66.30;;;;;;5069816;28;20048;-71
2022/10/04 13:01:10;;;;;;;6.50;2.45;;;17.50;66.40;;;;;;5069293;28;20060;-72
2022/10/04 13:04:00;;;;;;;7.88;2.42;;;17.50;66.30;;;;;;5071816;28;20082;-72
2022/10/04 13:06:31;;;;;;;5.75;2.50;;;17.50;66.20;;;;;;5069229;28;20063;-73
2022/10/04 13:09:03;;;;;;;7.65;2.47;;;17.50;66.30;;;;;;5071968;28;20063;-71
2022/10/04 13:11:40;;;;;;;4.85;2.28;;;17.50;66.20;;;;;;5070566;28;20060;-72
2022/10/04 13:14:44;;;;;;;5.45;2.38;;;17.50;66.20;;;;;;5070898;28;20063;-72
2022/10/04 13:17:18;;;;;;;5.93;2.50;;;17.50;66.10;;;;;;5070798;28;20066;-71
2022/10/04 13:19:51;;;;;;;10.07;2.43;;;17.50;66.20;;;;;;5070485;28;20052;-72
2022/10/04 13:22:36;;;;;;;7.05;2.22;;;17.50;66.20;;;;;;5071779;28;20231;-70
2022/10/04 13:25:14;;;;;;;4.25;2.30;;;17.60;66.20;;;;;;5067949;28;20052;-70
2022/10/04 13:27:46;;;;;;;5.50;2.00;;;17.50;66.20;;;;;;5070677;28;20067;-70
2022/10/04 13:30:19;;;;;;;5.35;2.22;;;17.60;66.30;;;;;;5071864;28;20055;-70
2022/10/04 13:32:49;;;;;;;7.35;2.30;;;17.50;66.30;;;;;;5070870;28;20064;-70
2022/10/04 13:35:20;;;;;;;3.92;2.10;;;17.60;66.40;;;;;;5071565;28;20051;-70
2022/10/04 13:37:55;;;;;;;5.95;2.30;;;17.60;66.40;;;;;;5072015;28;20048;-70
2022/10/04 13:40:29;;;;;;;7.55;2.63;;;17.60;66.40;;;;;;5070465;28;20057;-70